Eco Spitfire — 2HEA4 — position and weather

sailwx.info

Track history (hours):
 
Tides and Currents Weather Stations Pressure Air Temp Water Temp Dewpoint Dewpoint Depression Visibility Wind Speed Wind Dir Waves Ship Positions

Eco Spitfire

Last reported at 2017-Sep-17 09:22 UTC. Time now 2017-Sep-24 06:57 UTC.
Position N 37°16' E 025°52'.

Length 180 m; draft 10.4 m.

Type: Ship. MMSI: 235102885.

Date/timePositionNaut miles runAvg speedWind from/ knotsBaromVisibWave heightAir tempDewpointWater temp
2017-Sep-17 09:22N 37°16' E 025°52'513.7
2017-Sep-17 09:00N 37°20' E 025°50'713.7
2017-Sep-17 08:30N 37°27' E 025°50'713.8
2017-Sep-17 08:00N 37°34' E 025°50'713.6
2017-Sep-17 07:30N 37°41' E 025°49'713.7
2017-Sep-17 07:00N 37°47' E 025°46'12413.4
2017-Sep-16 21:48N 39°51' E 025°40'414.3
2017-Sep-16 21:29N 39°53' E 025°45'814.2
2017-Sep-16 20:55N 39°58' E 025°53'511.4
2017-Sep-16 20:28N 40°01' E 025°59'511.3
2017-Sep-16 20:00N 40°01' E 026°06'9512.1
2017-Sep-16 12:11N 40°48' E 027°54'613.0
2017-Sep-16 11:44N 40°49' E 028°01'312.9
2017-Sep-16 11:30N 40°50' E 028°05'713.1
2017-Sep-16 10:58N 40°51' E 028°15'30 4.0
2017-Sep-16 03:31N 40°57' E 028°53'0 0.0
2017-Sep-16 03:28N 40°57' E 028°53'0 0.0
2017-Sep-16 02:58N 40°57' E 028°53'0 0.1
2017-Sep-16 01:34N 40°57' E 028°53'0 0.0
2017-Sep-16 00:43N 40°57' E 028°53'1 1.4
2017-Sep-16 00:17N 40°57' E 028°54'1 3.3
2017-Sep-16 00:00N 40°57' E 028°55'2 2.8
2017-Sep-15 23:24N 40°58' E 028°57'28 3.5
2017-Sep-15 15:23N 41°26' E 028°57'2 0.6
2017-Sep-15 12:38N 41°27' E 028°59'0 0.5
2017-Sep-15 12:23N 41°27' E 028°59'0 0.5
2017-Sep-15 11:53N 41°27' E 028°59'7 1.1
2017-Sep-15 05:32N 41°20' E 029°01'0 0.8
2017-Sep-15 05:26N 41°20' E 029°01'1 0.7
2017-Sep-15 03:44N 41°21' E 029°03'0 0.7
2017-Sep-15 03:20N 41°21' E 029°03'1 0.6
2017-Sep-15 01:05N 41°21' E 029°05'0 0.7
2017-Sep-15 00:59N 41°21' E 029°05'0 0.6
2017-Sep-15 00:29N 41°22' E 029°05'0 0.6
2017-Sep-14 23:56N 41°22' E 029°06'0 0.6
2017-Sep-14 23:29N 41°22' E 029°06'0 0.6
2017-Sep-14 22:56N 41°22' E 029°06'0 0.5
2017-Sep-14 22:27N 41°22' E 029°06'1 1.6
2017-Sep-14 22:00N 41°23' E 029°07'510.4
2017-Sep-14 21:30N 41°27' E 029°11'612.2
2017-Sep-14 21:00N 41°33' E 029°14'1014.4
2017-Sep-14 20:17N 41°43' E 029°18'1514.0
2017-Sep-14 19:14N 41°57' E 029°23'513.5
2017-Sep-14 18:50N 42°02' E 029°26'413.5
2017-Sep-14 18:31N 42°06' E 029°27'713.6
2017-Sep-14 18:00N 42°13' E 029°30'713.5
2017-Sep-14 17:31N 42°19' E 029°33'713.4
2017-Sep-14 17:01N 42°26' E 029°35'713.5
2017-Sep-14 16:30N 42°32' E 029°38'713.5
2017-Sep-14 16:01N 42°39' E 029°41'713.5
2017-Sep-14 15:30N 42°45' E 029°43'713.5
2017-Sep-14 15:01N 42°51' E 029°46'713.6
2017-Sep-14 14:30N 42°58' E 029°48'713.7
2017-Sep-14 14:00N 43°05' E 029°51'713.7
2017-Sep-14 13:30N 43°11' E 029°54'713.6
2017-Sep-14 12:59N 43°18' E 029°57'713.6
2017-Sep-14 12:30N 43°24' E 029°59'713.7
2017-Sep-14 11:59N 43°31' E 030°02'713.6
2017-Sep-14 11:28N 43°38' E 030°05'613.5
2017-Sep-14 11:00N 43°44' E 030°07'15512.8
2017-Sep-13 22:51N 46°15' E 030°53'410.9
2017-Sep-13 22:29N 46°19' E 030°55'511.0
2017-Sep-13 22:00N 46°25' E 030°55'510.9
2017-Sep-13 21:30N 46°30' E 030°55'12 8.2
2017-Sep-13 20:01N 46°35' E 031°11'0 9.0
2017-Sep-13 19:59N 46°35' E 031°12'1 0.4
2017-Sep-13 17:27N 46°34' E 031°13'0 0.0
2017-Sep-13 16:58N 46°34' E 031°13'0 0.1
2017-Sep-13 16:25N 46°34' E 031°13'0 0.1
2017-Sep-13 15:58N 46°34' E 031°13'0 0.1
2017-Sep-13 15:28N 46°34' E 031°13'0 0.2
2017-Sep-13 14:58N 46°34' E 031°13'0 0.0
2017-Sep-13 14:28N 46°34' E 031°13'0 0.0
2017-Sep-13 13:58N 46°34' E 031°13'0 0.0
2017-Sep-13 13:28N 46°34' E 031°13'0 0.0
2017-Sep-13 12:52N 46°34' E 031°13'0 0.0
2017-Sep-13 12:28N 46°34' E 031°13'0 0.0
2017-Sep-13 11:58N 46°34' E 031°13'0 0.0
2017-Sep-13 11:28N 46°34' E 031°13'0 0.0
2017-Sep-13 10:58N 46°34' E 031°13'0 0.0
2017-Sep-13 10:28N 46°34' E 031°13'0 0.0
2017-Sep-13 09:58N 46°34' E 031°13'0 0.0
2017-Sep-13 09:28N 46°34' E 031°13'0 0.0
2017-Sep-13 08:58N 46°34' E 031°13'0 0.1
2017-Sep-13 08:28N 46°34' E 031°13'0 0.0
2017-Sep-13 07:55N 46°34' E 031°13'0 0.0
2017-Sep-13 07:25N 46°34' E 031°13'0 0.0
2017-Sep-13 06:58N 46°34' E 031°13'0 0.0
2017-Sep-13 06:28N 46°34' E 031°13'0 0.0
2017-Sep-13 05:58N 46°34' E 031°13'0 0.0
2017-Sep-13 05:28N 46°34' E 031°13'0 0.0
2017-Sep-13 04:58N 46°34' E 031°13'0 0.0
2017-Sep-13 04:28N 46°34' E 031°13'0 0.0
2017-Sep-13 03:58N 46°34' E 031°13'0 0.0
2017-Sep-13 03:28N 46°34' E 031°13'0 0.0
2017-Sep-13 02:58N 46°34' E 031°13'0 0.0
2017-Sep-13 02:28N 46°34' E 031°13'0 0.0
2017-Sep-13 01:58N 46°34' E 031°13'0 0.0
2017-Sep-13 01:28N 46°34' E 031°13'0 0.0
2017-Sep-13 00:52N 46°34' E 031°13'0 0.0
2017-Sep-13 00:28N 46°34' E 031°13'0 0.0
2017-Sep-12 23:58N 46°34' E 031°13'0 0.0
2017-Sep-12 23:28N 46°34' E 031°13'0 0.0
2017-Sep-12 22:58N 46°34' E 031°13'0 0.0
2017-Sep-12 22:28N 46°34' E 031°13'0 0.0
2017-Sep-12 21:58N 46°34' E 031°13'0 0.0
2017-Sep-12 21:28N 46°34' E 031°13'0 0.0
2017-Sep-12 20:58N 46°34' E 031°13'0 0.0
2017-Sep-12 20:28N 46°34' E 031°13'0 0.0
2017-Sep-12 19:58N 46°34' E 031°13'0 0.0
2017-Sep-12 19:28N 46°34' E 031°13'0 0.0
2017-Sep-12 18:58N 46°34' E 031°13'0 0.0
2017-Sep-12 18:25N 46°34' E 031°13'0 0.0
2017-Sep-12 17:58N 46°34' E 031°13'0 0.0
2017-Sep-12 17:28N 46°34' E 031°13'0 0.0
2017-Sep-12 16:52N 46°34' E 031°13'0 0.0
2017-Sep-12 16:28N 46°34' E 031°13'0 0.0
2017-Sep-12 15:58N 46°34' E 031°13'0 0.0
2017-Sep-12 15:28N 46°34' E 031°13'0 0.0
2017-Sep-12 14:58N 46°34' E 031°13'0 0.0
2017-Sep-12 14:22N 46°34' E 031°13'0 0.0
2017-Sep-12 13:31N 46°34' E 031°13'0 0.0
2017-Sep-12 13:28N 46°34' E 031°13'0 0.0
2017-Sep-12 12:58N 46°34' E 031°13'0 0.0
2017-Sep-12 12:19N 46°34' E 031°13'0 0.0
2017-Sep-12 11:55N 46°34' E 031°13'0 0.1
2017-Sep-12 11:22N 46°34' E 031°13'0 0.0
2017-Sep-12 10:34N 46°34' E 031°13'0 0.0
2017-Sep-12 10:28N 46°34' E 031°13'0 0.0
2017-Sep-12 09:58N 46°34' E 031°13'0 0.0
2017-Sep-12 09:28N 46°34' E 031°13'0 0.0
2017-Sep-12 08:58N 46°34' E 031°13'0 0.0
2017-Sep-12 08:28N 46°34' E 031°13'0 0.0
2017-Sep-12 07:58N 46°34' E 031°13'0 0.0
2017-Sep-12 07:28N 46°34' E 031°13'0 0.0
2017-Sep-12 06:58N 46°34' E 031°13'0 0.0
2017-Sep-12 06:28N 46°34' E 031°13'0 0.0
2017-Sep-12 05:58N 46°34' E 031°13'0 0.0
2017-Sep-12 05:28N 46°34' E 031°13'0 0.0
2017-Sep-12 04:58N 46°34' E 031°13'0 0.0
2017-Sep-12 04:28N 46°34' E 031°13'0 0.0
2017-Sep-12 02:49N 46°34' E 031°13'0 0.0
2017-Sep-12 02:28N 46°34' E 031°13'0 0.0
2017-Sep-12 01:52N 46°34' E 031°13'0 0.0
2017-Sep-12 01:25N 46°34' E 031°13'0 0.0
2017-Sep-12 00:22N 46°34' E 031°13'0 0.0
2017-Sep-11 23:58N 46°34' E 031°13'0 0.0
2017-Sep-11 22:49N 46°34' E 031°13'0 0.0
2017-Sep-11 22:25N 46°34' E 031°13'0 0.0
2017-Sep-11 21:58N 46°34' E 031°13'0 0.0
2017-Sep-11 21:28N 46°34' E 031°13'0 0.0
2017-Sep-11 20:55N 46°34' E 031°13'0 0.0
2017-Sep-11 20:28N 46°34' E 031°13'0 0.0
2017-Sep-11 19:58N 46°34' E 031°13'0 0.0
2017-Sep-11 19:28N 46°34' E 031°13'0 0.0
2017-Sep-11 18:58N 46°34' E 031°13'0 0.0
2017-Sep-11 18:28N 46°34' E 031°13'0 0.0
2017-Sep-11 17:58N 46°34' E 031°13'0 0.0
2017-Sep-11 17:22N 46°34' E 031°13'0 0.0
2017-Sep-11 16:55N 46°34' E 031°13'0 0.0
2017-Sep-11 16:28N 46°34' E 031°13'0 0.0
2017-Sep-11 15:58N 46°34' E 031°13'0 0.0
2017-Sep-11 15:28N 46°34' E 031°13'0 0.0
2017-Sep-11 14:58N 46°34' E 031°13'0 0.0
2017-Sep-11 14:25N 46°34' E 031°13'0 0.0
2017-Sep-11 13:58N 46°34' E 031°13'0 0.0
2017-Sep-11 13:25N 46°34' E 031°13'0 0.0
2017-Sep-11 12:58N 46°34' E 031°13'0 0.0
2017-Sep-11 12:28N 46°34' E 031°13'0 0.0
2017-Sep-11 11:46N 46°34' E 031°13'0 0.0
2017-Sep-11 11:22N 46°34' E 031°13'0 0.0
2017-Sep-11 10:10N 46°34' E 031°13'0 0.0
2017-Sep-11 08:31N 46°34' E 031°13'0 0.0
2017-Sep-11 08:25N 46°34' E 031°13'0 0.0
2017-Sep-11 07:52N 46°34' E 031°13'0 0.0
2017-Sep-11 07:28N 46°34' E 031°13'0 0.0
2017-Sep-11 06:55N 46°34' E 031°13'0 0.0
2017-Sep-11 06:28N 46°34' E 031°13'0 0.0
2017-Sep-11 05:55N 46°34' E 031°13'0 0.0
2017-Sep-11 05:28N 46°34' E 031°13'0 0.0
2017-Sep-11 04:52N 46°34' E 031°13'0 0.0
2017-Sep-11 04:28N 46°34' E 031°13'0 0.0
2017-Sep-11 03:58N 46°34' E 031°13'0 0.0
2017-Sep-11 03:22N 46°34' E 031°13'0 0.0
2017-Sep-11 02:46N 46°34' E 031°13'0 0.0
2017-Sep-11 02:16N 46°34' E 031°13'0 0.0
2017-Sep-11 01:58N 46°34' E 031°13'0 0.0
2017-Sep-11 01:25N 46°34' E 031°13'0 0.0
2017-Sep-11 00:55N 46°34' E 031°13'0 0.0
2017-Sep-11 00:28N 46°34' E 031°13'0 0.0
2017-Sep-10 23:55N 46°34' E 031°13'0 0.0
2017-Sep-10 23:28N 46°34' E 031°13'0 0.0
2017-Sep-10 22:58N 46°34' E 031°13'0 0.0
2017-Sep-10 22:28N 46°34' E 031°13'0 0.0
2017-Sep-10 21:58N 46°34' E 031°13'0 0.0
2017-Sep-10 21:28N 46°34' E 031°13'0 0.0
2017-Sep-10 20:58N 46°34' E 031°13'0 0.0
2017-Sep-10 20:28N 46°34' E 031°13'0 0.0
2017-Sep-10 19:34N 46°34' E 031°13'0 0.0
2017-Sep-10 19:22N 46°34' E 031°13'0 0.0
2017-Sep-10 18:58N 46°34' E 031°13'0 0.0
2017-Sep-10 18:19N 46°34' E 031°13'0 0.0
2017-Sep-10 17:52N 46°34' E 031°13'0 0.0
2017-Sep-10 17:22N 46°34' E 031°13'0 0.0
2017-Sep-10 16:49N 46°34' E 031°13'0 0.0
2017-Sep-10 16:28N 46°34' E 031°13'0 0.0
2017-Sep-10 05:58N 46°34' E 031°13'0 0.0
2017-Sep-10 05:28N 46°34' E 031°13'0 0.0
2017-Sep-10 04:58N 46°34' E 031°13'0 0.0
2017-Sep-10 04:25N 46°34' E 031°13'0 0.0
2017-Sep-10 03:22N 46°34' E 031°13'0 0.0
2017-Sep-10 02:58N 46°34' E 031°13'0 0.0
2017-Sep-10 01:52N 46°34' E 031°13'0 0.0
2017-Sep-10 01:28N 46°34' E 031°13'0 0.0
2017-Sep-10 00:34N 46°34' E 031°13'0 0.0
2017-Sep-10 00:16N 46°34' E 031°13'0 0.0
2017-Sep-09 23:58N 46°34' E 031°13'0 0.0
2017-Sep-09 23:16N 46°34' E 031°13'0 0.0
2017-Sep-09 20:22N 46°34' E 031°13'0 0.0
2017-Sep-09 19:58N 46°34' E 031°13'0 0.0
2017-Sep-09 19:28N 46°34' E 031°13'0 0.0
2017-Sep-09 18:58N 46°34' E 031°13'0 0.0
2017-Sep-09 18:28N 46°34' E 031°13'0 0.0
2017-Sep-09 17:58N 46°34' E 031°13'0 0.0
2017-Sep-09 17:28N 46°34' E 031°13'0 0.1
2017-Sep-09 16:04N 46°34' E 031°13'0 0.1
2017-Sep-09 15:58N 46°34' E 031°13'0 0.0
2017-Sep-09 15:22N 46°34' E 031°13'0 0.0
2017-Sep-09 04:34N 46°34' E 031°13'0 0.0
2017-Sep-09 04:28N 46°34' E 031°13'0 0.0
2017-Sep-09 02:28N 46°34' E 031°13'0 0.0
2017-Sep-09 01:52N 46°34' E 031°13'0 0.0
2017-Sep-09 01:19N 46°34' E 031°13'0 0.0
2017-Sep-09 00:58N 46°34' E 031°13'0 0.0
2017-Sep-09 00:28N 46°34' E 031°13'0 0.0
2017-Sep-08 23:58N 46°34' E 031°13'0 0.0
2017-Sep-08 23:16N 46°34' E 031°13'0 0.0
2017-Sep-08 21:22N 46°34' E 031°13'0 0.0
2017-Sep-08 20:52N 46°34' E 031°13'0 0.0
2017-Sep-08 20:22N 46°34' E 031°13'0 0.0
2017-Sep-08 19:58N 46°34' E 031°13'0 0.0
2017-Sep-08 03:31N 46°34' E 031°13'0 0.0
2017-Sep-07 23:10N 46°34' E 031°13'0 0.0
2017-Sep-07 22:46N 46°34' E 031°13'0 0.0
2017-Sep-07 22:28N 46°34' E 031°13'0 0.0
2017-Sep-07 21:43N 46°34' E 031°13'0 0.0
2017-Sep-07 21:28N 46°34' E 031°13'0 0.0
2017-Sep-07 20:55N 46°34' E 031°13'0 0.0
2017-Sep-07 20:25N 46°34' E 031°13'0 0.0
2017-Sep-07 19:46N 46°34' E 031°13'0 0.0
2017-Sep-07 19:28N 46°34' E 031°13'0 0.0
2017-Sep-07 18:52N 46°34' E 031°13'0 0.0
2017-Sep-07 18:04N 46°34' E 031°13'0 0.0
2017-Sep-07 17:55N 46°34' E 031°13'  
Track history (hours):
 
Tides and Currents Weather Stations Pressure Air Temp Water Temp Dewpoint Dewpoint Depression Visibility Wind Speed Wind Dir Waves Ship Positions

Eco Spitfire

Last reported at 2017-Sep-17 09:22 UTC. Time now 2017-Sep-24 06:57 UTC.
Position N 37°16' E 025°52'.

Length 180 m; draft 10.4 m.

Type: Ship. MMSI: 235102885.

Date/timePositionNaut miles runAvg speedWind from/ knotsBaromVisibWave heightAir tempDewpointWater temp
2017-Sep-17 09:22N 37°16' E 025°52'513.7
2017-Sep-17 09:00N 37°20' E 025°50'713.7
2017-Sep-17 08:30N 37°27' E 025°50'713.8
2017-Sep-17 08:00N 37°34' E 025°50'713.6
2017-Sep-17 07:30N 37°41' E 025°49'713.7
2017-Sep-17 07:00N 37°47' E 025°46'12413.4
2017-Sep-16 21:48N 39°51' E 025°40'414.3
2017-Sep-16 21:29N 39°53' E 025°45'814.2
2017-Sep-16 20:55N 39°58' E 025°53'511.4
2017-Sep-16 20:28N 40°01' E 025°59'511.3
2017-Sep-16 20:00N 40°01' E 026°06'9512.1
2017-Sep-16 12:11N 40°48' E 027°54'613.0
2017-Sep-16 11:44N 40°49' E 028°01'312.9
2017-Sep-16 11:30N 40°50' E 028°05'713.1
2017-Sep-16 10:58N 40°51' E 028°15'30 4.0
2017-Sep-16 03:31N 40°57' E 028°53'0 0.0
2017-Sep-16 03:28N 40°57' E 028°53'0 0.0
2017-Sep-16 02:58N 40°57' E 028°53'0 0.1
2017-Sep-16 01:34N 40°57' E 028°53'0 0.0
2017-Sep-16 00:43N 40°57' E 028°53'1 1.4
2017-Sep-16 00:17N 40°57' E 028°54'1 3.3
2017-Sep-16 00:00N 40°57' E 028°55'2 2.8
2017-Sep-15 23:24N 40°58' E 028°57'28 3.5
2017-Sep-15 15:23N 41°26' E 028°57'2 0.6
2017-Sep-15 12:38N 41°27' E 028°59'0 0.5
2017-Sep-15 12:23N 41°27' E 028°59'0 0.5
2017-Sep-15 11:53N 41°27' E 028°59'7 1.1
2017-Sep-15 05:32N 41°20' E 029°01'0 0.8
2017-Sep-15 05:26N 41°20' E 029°01'1 0.7
2017-Sep-15 03:44N 41°21' E 029°03'0 0.7
2017-Sep-15 03:20N 41°21' E 029°03'1 0.6
2017-Sep-15 01:05N 41°21' E 029°05'0 0.7
2017-Sep-15 00:59N 41°21' E 029°05'0 0.6
2017-Sep-15 00:29N 41°22' E 029°05'0 0.6
2017-Sep-14 23:56N 41°22' E 029°06'0 0.6
2017-Sep-14 23:29N 41°22' E 029°06'0 0.6
2017-Sep-14 22:56N 41°22' E 029°06'0 0.5
2017-Sep-14 22:27N 41°22' E 029°06'1 1.6
2017-Sep-14 22:00N 41°23' E 029°07'510.4
2017-Sep-14 21:30N 41°27' E 029°11'612.2
2017-Sep-14 21:00N 41°33' E 029°14'1014.4
2017-Sep-14 20:17N 41°43' E 029°18'1514.0
2017-Sep-14 19:14N 41°57' E 029°23'513.5
2017-Sep-14 18:50N 42°02' E 029°26'413.5
2017-Sep-14 18:31N 42°06' E 029°27'713.6
2017-Sep-14 18:00N 42°13' E 029°30'713.5
2017-Sep-14 17:31N 42°19' E 029°33'713.4
2017-Sep-14 17:01N 42°26' E 029°35'713.5
2017-Sep-14 16:30N 42°32' E 029°38'713.5
2017-Sep-14 16:01N 42°39' E 029°41'713.5
2017-Sep-14 15:30N 42°45' E 029°43'713.5
2017-Sep-14 15:01N 42°51' E 029°46'713.6
2017-Sep-14 14:30N 42°58' E 029°48'713.7
2017-Sep-14 14:00N 43°05' E 029°51'713.7
2017-Sep-14 13:30N 43°11' E 029°54'713.6
2017-Sep-14 12:59N 43°18' E 029°57'713.6
2017-Sep-14 12:30N 43°24' E 029°59'713.7
2017-Sep-14 11:59N 43°31' E 030°02'713.6
2017-Sep-14 11:28N 43°38' E 030°05'613.5
2017-Sep-14 11:00N 43°44' E 030°07'15512.8
2017-Sep-13 22:51N 46°15' E 030°53'410.9
2017-Sep-13 22:29N 46°19' E 030°55'511.0
2017-Sep-13 22:00N 46°25' E 030°55'510.9
2017-Sep-13 21:30N 46°30' E 030°55'12 8.2
2017-Sep-13 20:01N 46°35' E 031°11'0 9.0
2017-Sep-13 19:59N 46°35' E 031°12'1 0.4
2017-Sep-13 17:27N 46°34' E 031°13'0 0.0
2017-Sep-13 16:58N 46°34' E 031°13'0 0.1
2017-Sep-13 16:25N 46°34' E 031°13'0 0.1
2017-Sep-13 15:58N 46°34' E 031°13'0 0.1
2017-Sep-13 15:28N 46°34' E 031°13'0 0.2
2017-Sep-13 14:58N 46°34' E 031°13'0 0.0
2017-Sep-13 14:28N 46°34' E 031°13'0 0.0
2017-Sep-13 13:58N 46°34' E 031°13'0 0.0
2017-Sep-13 13:28N 46°34' E 031°13'0 0.0
2017-Sep-13 12:52N 46°34' E 031°13'0 0.0
2017-Sep-13 12:28N 46°34' E 031°13'0 0.0
2017-Sep-13 11:58N 46°34' E 031°13'0 0.0
2017-Sep-13 11:28N 46°34' E 031°13'0 0.0
2017-Sep-13 10:58N 46°34' E 031°13'0 0.0
2017-Sep-13 10:28N 46°34' E 031°13'0 0.0
2017-Sep-13 09:58N 46°34' E 031°13'0 0.0
2017-Sep-13 09:28N 46°34' E 031°13'0 0.0
2017-Sep-13 08:58N 46°34' E 031°13'0 0.1
2017-Sep-13 08:28N 46°34' E 031°13'0 0.0
2017-Sep-13 07:55N 46°34' E 031°13'0 0.0
2017-Sep-13 07:25N 46°34' E 031°13'0 0.0
2017-Sep-13 06:58N 46°34' E 031°13'0 0.0
2017-Sep-13 06:28N 46°34' E 031°13'0 0.0
2017-Sep-13 05:58N 46°34' E 031°13'0 0.0
2017-Sep-13 05:28N 46°34' E 031°13'0 0.0
2017-Sep-13 04:58N 46°34' E 031°13'0 0.0
2017-Sep-13 04:28N 46°34' E 031°13'0 0.0
2017-Sep-13 03:58N 46°34' E 031°13'0 0.0
2017-Sep-13 03:28N 46°34' E 031°13'0 0.0
2017-Sep-13 02:58N 46°34' E 031°13'0 0.0
2017-Sep-13 02:28N 46°34' E 031°13'0 0.0
2017-Sep-13 01:58N 46°34' E 031°13'0 0.0
2017-Sep-13 01:28N 46°34' E 031°13'0 0.0
2017-Sep-13 00:52N 46°34' E 031°13'0 0.0
2017-Sep-13 00:28N 46°34' E 031°13'0 0.0
2017-Sep-12 23:58N 46°34' E 031°13'0 0.0
2017-Sep-12 23:28N 46°34' E 031°13'0 0.0
2017-Sep-12 22:58N 46°34' E 031°13'0 0.0
2017-Sep-12 22:28N 46°34' E 031°13'0 0.0
2017-Sep-12 21:58N 46°34' E 031°13'0 0.0
2017-Sep-12 21:28N 46°34' E 031°13'0 0.0
2017-Sep-12 20:58N 46°34' E 031°13'0 0.0
2017-Sep-12 20:28N 46°34' E 031°13'0 0.0
2017-Sep-12 19:58N 46°34' E 031°13'0 0.0
2017-Sep-12 19:28N 46°34' E 031°13'0 0.0
2017-Sep-12 18:58N 46°34' E 031°13'0 0.0
2017-Sep-12 18:25N 46°34' E 031°13'0 0.0
2017-Sep-12 17:58N 46°34' E 031°13'0 0.0
2017-Sep-12 17:28N 46°34' E 031°13'0 0.0
2017-Sep-12 16:52N 46°34' E 031°13'0 0.0
2017-Sep-12 16:28N 46°34' E 031°13'0 0.0
2017-Sep-12 15:58N 46°34' E 031°13'0 0.0
2017-Sep-12 15:28N 46°34' E 031°13'0 0.0
2017-Sep-12 14:58N 46°34' E 031°13'0 0.0
2017-Sep-12 14:22N 46°34' E 031°13'0 0.0
2017-Sep-12 13:31N 46°34' E 031°13'0 0.0
2017-Sep-12 13:28N 46°34' E 031°13'0 0.0
2017-Sep-12 12:58N 46°34' E 031°13'0 0.0
2017-Sep-12 12:19N 46°34' E 031°13'0 0.0
2017-Sep-12 11:55N 46°34' E 031°13'0 0.1
2017-Sep-12 11:22N 46°34' E 031°13'0 0.0
2017-Sep-12 10:34N 46°34' E 031°13'0 0.0
2017-Sep-12 10:28N 46°34' E 031°13'0 0.0
2017-Sep-12 09:58N 46°34' E 031°13'0 0.0
2017-Sep-12 09:28N 46°34' E 031°13'0 0.0
2017-Sep-12 08:58N 46°34' E 031°13'0 0.0
2017-Sep-12 08:28N 46°34' E 031°13'0 0.0
2017-Sep-12 07:58N 46°34' E 031°13'0 0.0
2017-Sep-12 07:28N 46°34' E 031°13'0 0.0
2017-Sep-12 06:58N 46°34' E 031°13'0 0.0
2017-Sep-12 06:28N 46°34' E 031°13'0 0.0
2017-Sep-12 05:58N 46°34' E 031°13'0 0.0
2017-Sep-12 05:28N 46°34' E 031°13'0 0.0
2017-Sep-12 04:58N 46°34' E 031°13'0 0.0
2017-Sep-12 04:28N 46°34' E 031°13'0 0.0
2017-Sep-12 02:49N 46°34' E 031°13'0 0.0
2017-Sep-12 02:28N 46°34' E 031°13'0 0.0
2017-Sep-12 01:52N 46°34' E 031°13'0 0.0
2017-Sep-12 01:25N 46°34' E 031°13'0 0.0
2017-Sep-12 00:22N 46°34' E 031°13'0 0.0
2017-Sep-11 23:58N 46°34' E 031°13'0 0.0
2017-Sep-11 22:49N 46°34' E 031°13'0 0.0
2017-Sep-11 22:25N 46°34' E 031°13'0 0.0
2017-Sep-11 21:58N 46°34' E 031°13'0 0.0
2017-Sep-11 21:28N 46°34' E 031°13'0 0.0
2017-Sep-11 20:55N 46°34' E 031°13'0 0.0
2017-Sep-11 20:28N 46°34' E 031°13'0 0.0
2017-Sep-11 19:58N 46°34' E 031°13'0 0.0
2017-Sep-11 19:28N 46°34' E 031°13'0 0.0
2017-Sep-11 18:58N 46°34' E 031°13'0 0.0
2017-Sep-11 18:28N 46°34' E 031°13'0 0.0
2017-Sep-11 17:58N 46°34' E 031°13'0 0.0
2017-Sep-11 17:22N 46°34' E 031°13'0 0.0
2017-Sep-11 16:55N 46°34' E 031°13'0 0.0
2017-Sep-11 16:28N 46°34' E 031°13'0 0.0
2017-Sep-11 15:58N 46°34' E 031°13'0 0.0
2017-Sep-11 15:28N 46°34' E 031°13'0 0.0
2017-Sep-11 14:58N 46°34' E 031°13'0 0.0
2017-Sep-11 14:25N 46°34' E 031°13'0 0.0
2017-Sep-11 13:58N 46°34' E 031°13'0 0.0
2017-Sep-11 13:25N 46°34' E 031°13'0 0.0
2017-Sep-11 12:58N 46°34' E 031°13'0 0.0
2017-Sep-11 12:28N 46°34' E 031°13'0 0.0
2017-Sep-11 11:46N 46°34' E 031°13'0 0.0
2017-Sep-11 11:22N 46°34' E 031°13'0 0.0
2017-Sep-11 10:10N 46°34' E 031°13'0 0.0
2017-Sep-11 08:31N 46°34' E 031°13'0 0.0
2017-Sep-11 08:25N 46°34' E 031°13'0 0.0
2017-Sep-11 07:52N 46°34' E 031°13'0 0.0
2017-Sep-11 07:28N 46°34' E 031°13'0 0.0
2017-Sep-11 06:55N 46°34' E 031°13'0 0.0
2017-Sep-11 06:28N 46°34' E 031°13'0 0.0
2017-Sep-11 05:55N 46°34' E 031°13'0 0.0
2017-Sep-11 05:28N 46°34' E 031°13'0 0.0
2017-Sep-11 04:52N 46°34' E 031°13'0 0.0
2017-Sep-11 04:28N 46°34' E 031°13'0 0.0
2017-Sep-11 03:58N 46°34' E 031°13'0 0.0
2017-Sep-11 03:22N 46°34' E 031°13'0 0.0
2017-Sep-11 02:46N 46°34' E 031°13'0 0.0
2017-Sep-11 02:16N 46°34' E 031°13'0 0.0
2017-Sep-11 01:58N 46°34' E 031°13'0 0.0
2017-Sep-11 01:25N 46°34' E 031°13'0 0.0
2017-Sep-11 00:55N 46°34' E 031°13'0 0.0
2017-Sep-11 00:28N 46°34' E 031°13'0 0.0
2017-Sep-10 23:55N 46°34' E 031°13'0 0.0
2017-Sep-10 23:28N 46°34' E 031°13'0 0.0
2017-Sep-10 22:58N 46°34' E 031°13'0 0.0
2017-Sep-10 22:28N 46°34' E 031°13'0 0.0
2017-Sep-10 21:58N 46°34' E 031°13'0 0.0
2017-Sep-10 21:28N 46°34' E 031°13'0 0.0
2017-Sep-10 20:58N 46°34' E 031°13'0 0.0
2017-Sep-10 20:28N 46°34' E 031°13'0 0.0
2017-Sep-10 19:34N 46°34' E 031°13'0 0.0
2017-Sep-10 19:22N 46°34' E 031°13'0 0.0
2017-Sep-10 18:58N 46°34' E 031°13'0 0.0
2017-Sep-10 18:19N 46°34' E 031°13'0 0.0
2017-Sep-10 17:52N 46°34' E 031°13'0 0.0
2017-Sep-10 17:22N 46°34' E 031°13'0 0.0
2017-Sep-10 16:49N 46°34' E 031°13'0 0.0
2017-Sep-10 16:28N 46°34' E 031°13'0 0.0
2017-Sep-10 05:58N 46°34' E 031°13'0 0.0
2017-Sep-10 05:28N 46°34' E 031°13'0 0.0
2017-Sep-10 04:58N 46°34' E 031°13'0 0.0
2017-Sep-10 04:25N 46°34' E 031°13'0 0.0
2017-Sep-10 03:22N 46°34' E 031°13'0 0.0
2017-Sep-10 02:58N 46°34' E 031°13'0 0.0
2017-Sep-10 01:52N 46°34' E 031°13'0 0.0
2017-Sep-10 01:28N 46°34' E 031°13'0 0.0
2017-Sep-10 00:34N 46°34' E 031°13'0 0.0
2017-Sep-10 00:16N 46°34' E 031°13'0 0.0
2017-Sep-09 23:58N 46°34' E 031°13'0 0.0
2017-Sep-09 23:16N 46°34' E 031°13'0 0.0
2017-Sep-09 20:22N 46°34' E 031°13'0 0.0
2017-Sep-09 19:58N 46°34' E 031°13'0 0.0
2017-Sep-09 19:28N 46°34' E 031°13'0 0.0
2017-Sep-09 18:58N 46°34' E 031°13'0 0.0
2017-Sep-09 18:28N 46°34' E 031°13'0 0.0
2017-Sep-09 17:58N 46°34' E 031°13'0 0.0
2017-Sep-09 17:28N 46°34' E 031°13'0 0.1
2017-Sep-09 16:04N 46°34' E 031°13'0 0.1
2017-Sep-09 15:58N 46°34' E 031°13'0 0.0
2017-Sep-09 15:22N 46°34' E 031°13'0 0.0
2017-Sep-09 04:34N 46°34' E 031°13'0 0.0
2017-Sep-09 04:28N 46°34' E 031°13'0 0.0
2017-Sep-09 02:28N 46°34' E 031°13'0 0.0
2017-Sep-09 01:52N 46°34' E 031°13'0 0.0
2017-Sep-09 01:19N 46°34' E 031°13'0 0.0
2017-Sep-09 00:58N 46°34' E 031°13'0 0.0
2017-Sep-09 00:28N 46°34' E 031°13'0 0.0
2017-Sep-08 23:58N 46°34' E 031°13'0 0.0
2017-Sep-08 23:16N 46°34' E 031°13'0 0.0
2017-Sep-08 21:22N 46°34' E 031°13'0 0.0
2017-Sep-08 20:52N 46°34' E 031°13'0 0.0
2017-Sep-08 20:22N 46°34' E 031°13'0 0.0
2017-Sep-08 19:58N 46°34' E 031°13'0 0.0
2017-Sep-08 03:31N 46°34' E 031°13'0 0.0
2017-Sep-07 23:10N 46°34' E 031°13'0 0.0
2017-Sep-07 22:46N 46°34' E 031°13'0 0.0
2017-Sep-07 22:28N 46°34' E 031°13'0 0.0
2017-Sep-07 21:43N 46°34' E 031°13'0 0.0
2017-Sep-07 21:28N 46°34' E 031°13'0 0.0
2017-Sep-07 20:55N 46°34' E 031°13'0 0.0
2017-Sep-07 20:25N 46°34' E 031°13'0 0.0
2017-Sep-07 19:46N 46°34' E 031°13'0 0.0
2017-Sep-07 19:28N 46°34' E 031°13'0 0.0
2017-Sep-07 18:52N 46°34' E 031°13'0 0.0
2017-Sep-07 18:04N 46°34' E 031°13'0 0.0
2017-Sep-07 17:55N 46°34' E 031°13'  

Dump ship's entire track history